createdAt,value
2022-10-04T00:00:25.498Z,10.50
2022-10-04T00:02:59.735Z,10.50
2022-10-04T00:05:28.062Z,10.40
2022-10-04T00:07:56.553Z,10.40
2022-10-04T00:10:25.707Z,10.20
2022-10-04T00:12:54.446Z,10.20
2022-10-04T00:15:27.035Z,10.10
2022-10-04T00:18:01.427Z,10.10
2022-10-04T00:20:47.871Z,10.20
2022-10-04T00:23:29.550Z,10.20
2022-10-04T00:25:58.140Z,10.30
2022-10-04T00:28:30.536Z,10.40
2022-10-04T00:31:13.313Z,10.50
2022-10-04T00:33:41.869Z,10.40
2022-10-04T00:36:24.428Z,10.40
2022-10-04T00:39:03.303Z,10.40
2022-10-04T00:41:35.346Z,10.40
2022-10-04T00:44:04.442Z,10.40
2022-10-04T00:46:34.672Z,10.40
2022-10-04T00:49:03.889Z,10.30
2022-10-04T00:51:33.697Z,10.20
2022-10-04T00:54:04.511Z,10.20
2022-10-04T00:56:36.046Z,10.20
2022-10-04T00:59:07.020Z,10.20
2022-10-04T01:01:37.878Z,10.10
2022-10-04T01:04:06.954Z,10.10
2022-10-04T01:06:35.368Z,10.10
2022-10-04T01:09:04.991Z,10.10
2022-10-04T01:11:36.695Z,10.00
2022-10-04T01:14:06.601Z,9.90
2022-10-04T01:16:36.563Z,10.00
2022-10-04T01:19:19.140Z,9.70
2022-10-04T01:21:47.153Z,9.60
2022-10-04T01:24:22.220Z,9.50
2022-10-04T01:26:49.952Z,9.40
2022-10-04T01:29:18.893Z,9.20
2022-10-04T01:31:47.507Z,9.20
2022-10-04T01:34:16.491Z,9.10
2022-10-04T01:36:47.153Z,9.20
2022-10-04T01:39:15.605Z,9.30
2022-10-04T01:41:47.295Z,9.40
2022-10-04T01:44:20.115Z,9.60
2022-10-04T01:46:48.961Z,9.70
2022-10-04T01:49:19.118Z,9.80
2022-10-04T01:51:50.872Z,9.80
2022-10-04T01:54:20.063Z,9.90
2022-10-04T01:56:50.758Z,9.80
2022-10-04T01:59:22.389Z,9.80
2022-10-04T02:01:52.048Z,9.90
2022-10-04T02:04:22.464Z,9.90
2022-10-04T02:06:54.107Z,9.90
2022-10-04T02:09:24.124Z,9.80
2022-10-04T02:11:54.186Z,9.70
2022-10-04T02:14:23.648Z,9.60
2022-10-04T02:16:53.718Z,9.40
2022-10-04T02:19:23.139Z,9.40
2022-10-04T02:21:50.980Z,9.30
2022-10-04T02:24:18.915Z,9.30
2022-10-04T02:26:50.181Z,9.20
2022-10-04T02:29:19.498Z,8.90
2022-10-04T02:32:05.907Z,8.80
2022-10-04T02:34:34.145Z,8.80
2022-10-04T02:37:03.986Z,8.80
2022-10-04T02:39:33.947Z,8.70
2022-10-04T02:42:04.431Z,8.80
2022-10-04T02:44:37.127Z,8.90
2022-10-04T02:47:08.699Z,9.00
2022-10-04T02:49:39.127Z,9.10
2022-10-04T02:52:08.487Z,9.10
2022-10-04T02:54:38.374Z,9.00
2022-10-04T02:57:06.601Z,9.20
2022-10-04T02:59:35.789Z,9.30
2022-10-04T03:02:03.718Z,9.20
2022-10-04T03:04:33.150Z,9.20
2022-10-04T03:07:02.158Z,9.10
2022-10-04T03:09:30.285Z,8.90
2022-10-04T03:11:58.390Z,9.00
2022-10-04T03:14:27.585Z,9.00
2022-10-04T03:16:58.106Z,9.10
2022-10-04T03:19:27.118Z,9.10
2022-10-04T03:21:56.958Z,9.10
2022-10-04T03:24:26.243Z,9.20
2022-10-04T03:26:55.748Z,9.30
2022-10-04T03:29:24.434Z,9.40
2022-10-04T03:31:53.367Z,9.50
2022-10-04T03:34:24.044Z,9.40
2022-10-04T03:36:56.156Z,9.20
2022-10-04T03:39:28.512Z,9.10
2022-10-04T03:41:58.465Z,9.00
2022-10-04T03:44:26.362Z,8.90
2022-10-04T03:46:54.034Z,9.00
2022-10-04T03:49:31.136Z,9.00
2022-10-04T03:51:59.299Z,9.10
2022-10-04T03:54:28.127Z,9.10
2022-10-04T03:56:56.325Z,9.20
2022-10-04T03:59:25.520Z,9.20
2022-10-04T04:02:01.268Z,9.20
2022-10-04T04:04:35.690Z,9.30
2022-10-04T04:07:04.567Z,9.40
2022-10-04T04:09:37.559Z,9.40
2022-10-04T04:12:07.438Z,9.40
2022-10-04T04:14:35.187Z,9.50
2022-10-04T04:17:18.426Z,9.50
2022-10-04T04:19:47.567Z,9.30
2022-10-04T04:22:16.647Z,9.30
2022-10-04T04:24:44.957Z,9.30
2022-10-04T04:27:14.364Z,9.30
2022-10-04T04:29:45.568Z,9.40
2022-10-04T04:32:17.439Z,9.40
2022-10-04T04:34:52.915Z,9.40
2022-10-04T04:37:20.862Z,9.40
2022-10-04T04:39:52.187Z,9.30
2022-10-04T04:42:21.180Z,9.30
2022-10-04T04:44:50.710Z,9.10
2022-10-04T04:47:23.642Z,8.90
2022-10-04T04:49:52.791Z,8.90
2022-10-04T04:52:22.146Z,8.90
2022-10-04T04:54:50.022Z,8.80
2022-10-04T04:57:18.103Z,8.80
2022-10-04T04:59:47.540Z,8.70
2022-10-04T05:02:28.809Z,8.80
2022-10-04T05:07:51.476Z,9.00
2022-10-04T05:10:23.158Z,9.10
2022-10-04T05:12:51.869Z,9.20
2022-10-04T05:15:19.717Z,9.30
2022-10-04T05:17:47.481Z,9.40
2022-10-04T05:20:15.628Z,9.40
2022-10-04T05:22:46.868Z,9.20
2022-10-04T05:25:18.778Z,9.00
2022-10-04T05:27:46.559Z,8.80
2022-10-04T05:30:20.943Z,8.70
2022-10-04T05:32:51.652Z,8.50
2022-10-04T05:35:20.796Z,8.30
2022-10-04T05:38:02.047Z,8.20
2022-10-04T05:40:34.708Z,8.10
2022-10-04T05:43:03.219Z,8.00
2022-10-04T05:45:31.867Z,8.00
2022-10-04T05:48:01.526Z,7.90
2022-10-04T05:50:30.862Z,7.80
2022-10-04T05:53:09.998Z,7.80
2022-10-04T05:55:43.495Z,7.80
2022-10-04T05:58:26.575Z,7.80
2022-10-04T06:01:03.623Z,7.80
2022-10-04T06:03:39.453Z,7.80
2022-10-04T06:06:13.628Z,7.80
2022-10-04T06:08:45.999Z,7.90
2022-10-04T06:11:22.612Z,7.90
2022-10-04T06:14:05.306Z,7.90
2022-10-04T06:16:41.679Z,7.90
2022-10-04T06:19:15.557Z,7.90
2022-10-04T06:21:56.771Z,8.00
2022-10-04T06:24:27.019Z,8.10
2022-10-04T06:26:59.825Z,8.10
2022-10-04T06:29:29.258Z,8.20
2022-10-04T06:32:12.486Z,8.30
2022-10-04T06:35:00.914Z,8.30
2022-10-04T06:37:39.670Z,8.30
2022-10-04T06:40:26.828Z,8.30
2022-10-04T06:43:05.013Z,8.30
2022-10-04T06:45:38.954Z,8.30
2022-10-04T06:48:26.980Z,8.40
2022-10-04T06:50:56.546Z,8.40
2022-10-04T06:53:27.443Z,8.40
2022-10-04T06:56:09.439Z,8.40
2022-10-04T06:58:45.587Z,8.50
2022-10-04T07:01:18.707Z,8.50
2022-10-04T07:03:51.558Z,8.60
2022-10-04T07:06:24.241Z,8.70
2022-10-04T07:08:52.825Z,8.80
2022-10-04T07:11:23.446Z,8.90
2022-10-04T07:13:56.512Z,9.00
2022-10-04T07:16:30.840Z,9.20
2022-10-04T07:19:01.679Z,9.20
2022-10-04T07:21:34.641Z,9.40
2022-10-04T07:24:03.788Z,9.50
2022-10-04T07:26:34.797Z,9.60
2022-10-04T07:29:23.536Z,9.70
2022-10-04T07:31:53.762Z,9.80
2022-10-04T07:34:27.198Z,9.90
2022-10-04T07:36:55.837Z,10.00
2022-10-04T07:39:25.807Z,10.00
2022-10-04T07:41:54.462Z,10.10
2022-10-04T07:44:32.466Z,10.20
2022-10-04T07:47:03.079Z,10.30
2022-10-04T07:49:37.681Z,10.40
2022-10-04T07:52:25.859Z,10.50
2022-10-04T07:54:57.704Z,10.60
2022-10-04T07:57:30.926Z,10.80
2022-10-04T08:00:03.559Z,10.80
2022-10-04T08:02:39.814Z,10.90
2022-10-04T08:05:13.966Z,11.00
2022-10-04T08:07:46.923Z,11.10
2022-10-04T08:10:18.090Z,11.40
2022-10-04T08:12:50.851Z,11.50
2022-10-04T08:15:36.264Z,11.60
2022-10-04T08:18:17.209Z,11.70
2022-10-04T08:20:48.967Z,11.90
2022-10-04T08:23:22.556Z,12.10
2022-10-04T08:25:55.619Z,12.20
2022-10-04T08:28:47.818Z,12.30
2022-10-04T08:31:24.716Z,12.50
2022-10-04T08:34:09.464Z,12.70
2022-10-04T08:36:44.974Z,12.80
2022-10-04T08:39:20.794Z,12.90
2022-10-04T08:42:06.948Z,13.10
2022-10-04T08:44:52.332Z,13.10
2022-10-04T08:47:33.337Z,13.00
2022-10-04T08:50:11.837Z,13.00
2022-10-04T08:52:58.676Z,13.20
2022-10-04T08:55:44.245Z,13.30
2022-10-04T08:58:26.182Z,13.50
2022-10-04T09:00:58.889Z,13.60
2022-10-04T09:03:45.497Z,13.80
2022-10-04T09:06:25.875Z,14.10
2022-10-04T09:09:12.851Z,14.30
2022-10-04T09:11:51.040Z,14.50
2022-10-04T09:14:42.882Z,14.40
2022-10-04T09:17:22.316Z,14.50
2022-10-04T09:20:04.875Z,14.60
2022-10-04T09:22:50.057Z,14.80
2022-10-04T09:25:35.119Z,15.10
2022-10-04T09:28:13.460Z,15.30
2022-10-04T09:30:46.188Z,15.70
2022-10-04T09:33:21.896Z,15.80
2022-10-04T09:35:56.159Z,16.10
2022-10-04T09:38:35.739Z,16.20
2022-10-04T09:41:12.823Z,16.40
2022-10-04T09:44:04.670Z,16.70
2022-10-04T09:46:50.302Z,16.80
2022-10-04T09:49:32.676Z,17.00
2022-10-04T09:52:15.398Z,17.00
2022-10-04T09:54:55.051Z,17.10
2022-10-04T09:57:28.006Z,17.50
2022-10-04T10:00:02.734Z,17.70
2022-10-04T10:02:44.558Z,17.80
2022-10-04T10:05:30.390Z,17.90
2022-10-04T10:08:01.877Z,18.10
2022-10-04T10:10:55.632Z,18.10
2022-10-04T10:13:40.683Z,17.90
2022-10-04T10:16:13.832Z,17.70
2022-10-04T10:18:49.454Z,17.50
2022-10-04T10:21:40.664Z,17.50
2022-10-04T10:24:25.100Z,17.50
2022-10-04T10:26:58.338Z,17.60
2022-10-04T10:29:37.517Z,17.60
2022-10-04T10:32:26.448Z,17.30
2022-10-04T10:35:12.576Z,17.00
2022-10-04T10:37:46.399Z,17.10
2022-10-04T10:40:23.699Z,17.30
2022-10-04T10:43:03.260Z,17.50
2022-10-04T10:45:38.702Z,17.70
2022-10-04T10:48:09.207Z,17.90
2022-10-04T10:50:59.983Z,18.20
2022-10-04T10:53:43.040Z,18.50
2022-10-04T10:56:30.335Z,18.90
2022-10-04T10:59:11.712Z,19.30
2022-10-04T11:01:48.038Z,19.60
2022-10-04T11:04:28.761Z,20.10
2022-10-04T11:07:09.664Z,20.60
2022-10-04T11:09:48.724Z,21.10
2022-10-04T11:12:22.770Z,21.40
2022-10-04T11:15:32.031Z,21.40
2022-10-04T11:18:09.075Z,21.50
2022-10-04T11:20:59.362Z,21.30
2022-10-04T11:23:37.650Z,21.40
2022-10-04T11:26:23.127Z,21.70
2022-10-04T11:28:56.715Z,21.50
2022-10-04T11:31:53.568Z,21.80
2022-10-04T11:34:35.212Z,22.00
2022-10-04T11:37:08.704Z,22.30
2022-10-04T11:39:55.356Z,22.40
2022-10-04T11:42:30.074Z,22.50
2022-10-04T11:45:07.018Z,22.50
2022-10-04T11:47:40.917Z,22.30
2022-10-04T11:50:23.535Z,22.30
2022-10-04T11:53:09.287Z,22.60
2022-10-04T11:55:54.077Z,22.20
2022-10-04T11:58:26.603Z,22.20
2022-10-04T12:01:14.063Z,22.50
2022-10-04T12:03:56.702Z,22.80
2022-10-04T12:06:35.646Z,23.20
2022-10-04T12:09:06.006Z,23.30
2022-10-04T12:12:09.535Z,23.50
2022-10-04T12:14:43.499Z,23.80
2022-10-04T12:17:27.668Z,23.90
2022-10-04T12:20:01.692Z,23.60
2022-10-04T12:22:50.425Z,23.70
2022-10-04T12:25:48.195Z,23.70
2022-10-04T12:28:27.354Z,23.70
2022-10-04T12:31:01.822Z,23.60
2022-10-04T12:33:34.417Z,23.50
2022-10-04T12:36:06.828Z,23.60
2022-10-04T12:38:45.328Z,24.10
2022-10-04T12:41:20.693Z,24.50
2022-10-04T12:43:56.500Z,25.00
2022-10-04T12:46:29.690Z,25.30
2022-10-04T12:49:06.881Z,25.50
2022-10-04T12:51:39.090Z,25.80
2022-10-04T12:54:13.059Z,25.90
2022-10-04T12:56:47.187Z,25.80
2022-10-04T12:59:36.030Z,25.70
2022-10-04T13:02:15.799Z,25.60
2022-10-04T13:04:48.757Z,25.10
2022-10-04T13:07:26.133Z,25.10
2022-10-04T13:10:22.428Z,24.90
2022-10-04T13:13:10.538Z,24.90
2022-10-04T13:18:32.579Z,24.60
2022-10-04T13:21:02.086Z,25.10
2022-10-04T13:23:40.818Z,25.40
2022-10-04T13:26:16.760Z,25.60
2022-10-04T13:28:48.037Z,25.10
2022-10-04T13:31:24.311Z,25.00
2022-10-04T13:33:56.582Z,25.00
2022-10-04T13:36:27.279Z,25.10
2022-10-04T13:39:09.305Z,25.40
2022-10-04T13:41:47.953Z,25.00
2022-10-04T13:44:26.401Z,24.10
2022-10-04T13:47:04.896Z,23.80
2022-10-04T13:49:42.332Z,23.90
2022-10-04T13:52:31.600Z,24.20
2022-10-04T13:55:28.824Z,24.20
2022-10-04T13:58:01.091Z,24.20
2022-10-04T14:00:36.492Z,24.10
2022-10-04T14:03:14.401Z,24.10
2022-10-04T14:06:00.126Z,24.20
2022-10-04T14:08:40.795Z,24.30
2022-10-04T14:11:21.259Z,24.30
2022-10-04T14:13:57.308Z,24.60
2022-10-04T14:16:46.053Z,24.40
2022-10-04T14:19:28.669Z,23.90
2022-10-04T14:22:14.023Z,23.40
2022-10-04T14:24:58.311Z,22.50
2022-10-04T14:27:39.895Z,22.00
2022-10-04T14:30:18.700Z,21.50
2022-10-04T14:33:01.322Z,21.10
2022-10-04T14:35:31.159Z,21.00
2022-10-04T14:38:25.828Z,20.90
2022-10-04T14:41:18.020Z,21.00
2022-10-04T14:44:04.987Z,21.20
2022-10-04T14:46:38.924Z,21.60
2022-10-04T14:49:12.418Z,22.00
2022-10-04T14:51:45.508Z,22.30
2022-10-04T14:54:16.998Z,22.50
2022-10-04T14:56:53.402Z,22.60
2022-10-04T14:59:33.136Z,22.60
2022-10-04T15:02:19.401Z,22.80
2022-10-04T15:05:05.190Z,22.90
2022-10-04T15:07:36.790Z,22.40
2022-10-04T15:10:07.883Z,22.10
2022-10-04T15:13:09.930Z,21.70
2022-10-04T15:15:36.882Z,21.00
2022-10-04T15:18:06.701Z,20.40
2022-10-04T15:20:38.110Z,20.10
2022-10-04T15:23:12.111Z,19.80
2022-10-04T15:25:41.807Z,19.60
2022-10-04T15:28:15.677Z,19.40
2022-10-04T15:30:53.559Z,19.20
2022-10-04T15:33:26.837Z,19.00
2022-10-04T15:36:13.493Z,19.00
2022-10-04T15:38:47.791Z,18.80
2022-10-04T15:41:17.320Z,18.60
2022-10-04T15:43:45.558Z,18.60
2022-10-04T15:46:32.491Z,18.60
2022-10-04T15:49:10.195Z,18.50
2022-10-04T15:51:44.684Z,18.40
2022-10-04T15:54:18.363Z,18.30
2022-10-04T15:56:50.656Z,18.20
2022-10-04T15:59:28.838Z,18.10
2022-10-04T16:02:09.269Z,18.10
2022-10-04T16:04:47.955Z,18.10
2022-10-04T16:07:25.373Z,17.90
2022-10-04T16:09:58.955Z,18.00
2022-10-04T16:12:29.202Z,17.90
2022-10-04T16:15:01.251Z,17.90
2022-10-04T16:17:44.936Z,17.90
2022-10-04T16:20:29.401Z,17.80
2022-10-04T16:23:15.932Z,17.80
2022-10-04T16:25:44.044Z,17.80
2022-10-04T16:28:14.843Z,17.70
2022-10-04T16:30:48.153Z,17.70
2022-10-04T16:33:28.324Z,17.60
2022-10-04T16:36:05.301Z,17.40
2022-10-04T16:38:35.429Z,17.30
2022-10-04T16:41:10.534Z,17.20
2022-10-04T16:43:41.038Z,17.10
2022-10-04T16:46:13.312Z,16.90
2022-10-04T16:48:50.267Z,16.80
2022-10-04T16:51:33.047Z,16.70
2022-10-04T16:54:06.621Z,16.50
2022-10-04T16:56:56.663Z,16.40
2022-10-04T16:59:39.320Z,16.40
2022-10-04T17:02:19.260Z,16.30
2022-10-04T17:05:02.662Z,16.10
2022-10-04T17:07:36.658Z,16.00
2022-10-04T17:10:16.219Z,15.90
2022-10-04T17:12:47.451Z,15.80
2022-10-04T17:15:26.147Z,15.70
2022-10-04T17:17:58.455Z,15.60
2022-10-04T17:20:29.483Z,15.50
2022-10-04T17:23:09.511Z,15.40
2022-10-04T17:25:40.275Z,15.30
2022-10-04T17:28:15.077Z,15.20
2022-10-04T17:30:48.259Z,15.10
2022-10-04T17:33:30.900Z,15.00
2022-10-04T17:36:01.765Z,14.90
2022-10-04T17:38:35.133Z,14.80
2022-10-04T17:41:06.426Z,14.70
2022-10-04T17:43:41.183Z,14.60
2022-10-04T17:46:17.862Z,14.50
2022-10-04T17:49:05.301Z,14.50
2022-10-04T17:51:57.425Z,14.40
2022-10-04T17:54:44.629Z,14.30
2022-10-04T17:57:15.040Z,14.30
2022-10-04T17:59:44.625Z,14.20
2022-10-04T18:02:17.158Z,14.10
2022-10-04T18:04:48.136Z,14.00
2022-10-04T18:07:19.753Z,14.00
2022-10-04T18:09:49.000Z,13.90
2022-10-04T18:12:25.556Z,13.90
2022-10-04T18:14:58.235Z,13.90
2022-10-04T18:17:28.944Z,13.70
2022-10-04T18:20:01.396Z,13.70
2022-10-04T18:22:42.215Z,13.60
2022-10-04T18:25:13.934Z,13.50
2022-10-04T18:27:49.421Z,13.50
2022-10-04T18:30:18.811Z,13.40
2022-10-04T18:32:48.611Z,13.40
2022-10-04T18:35:21.771Z,13.30
2022-10-04T18:37:51.093Z,13.20
2022-10-04T18:40:20.350Z,13.30
2022-10-04T18:42:53.140Z,13.20
2022-10-04T18:45:22.250Z,13.20
2022-10-04T18:47:52.092Z,13.10
2022-10-04T18:50:32.798Z,13.10
2022-10-04T18:53:09.504Z,13.00
2022-10-04T18:55:40.273Z,13.00
2022-10-04T18:58:35.587Z,13.00
2022-10-04T19:01:29.451Z,12.90
2022-10-04T19:04:00.915Z,12.90
2022-10-04T19:06:29.535Z,12.80
2022-10-04T19:09:01.884Z,12.80
2022-10-04T19:11:34.179Z,12.80
2022-10-04T19:14:08.425Z,12.80
2022-10-04T19:16:40.898Z,12.70
2022-10-04T19:19:17.487Z,12.70
2022-10-04T19:21:48.296Z,12.60
2022-10-04T19:24:25.377Z,12.60
2022-10-04T19:26:58.641Z,12.60
2022-10-04T19:29:32.229Z,12.50
2022-10-04T19:32:02.066Z,12.50
2022-10-04T19:34:35.694Z,12.50
2022-10-04T19:37:08.989Z,12.40
2022-10-04T19:39:43.002Z,12.50
2022-10-04T19:42:12.029Z,12.40
2022-10-04T19:44:52.016Z,12.40
2022-10-04T19:47:25.550Z,12.30
2022-10-04T19:49:54.627Z,12.30
2022-10-04T19:52:24.636Z,12.30
2022-10-04T19:54:57.071Z,12.20
2022-10-04T19:57:30.920Z,12.20
2022-10-04T19:59:58.891Z,12.10
2022-10-04T20:02:26.608Z,12.10
2022-10-04T20:04:54.316Z,12.10
2022-10-04T20:07:23.915Z,12.00
2022-10-04T20:09:53.076Z,12.00
2022-10-04T20:12:33.628Z,11.90
2022-10-04T20:15:27.314Z,11.90
2022-10-04T20:17:55.788Z,11.90
2022-10-04T20:20:38.639Z,11.90
2022-10-04T20:23:07.539Z,11.90
2022-10-04T20:26:00.103Z,11.90
2022-10-04T20:28:44.817Z,11.80
2022-10-04T20:31:36.246Z,11.80
2022-10-04T20:34:18.856Z,11.80
2022-10-04T20:36:54.267Z,11.80
2022-10-04T20:39:40.595Z,11.70
2022-10-04T20:42:23.997Z,11.70
2022-10-04T20:44:55.223Z,11.60
2022-10-04T20:47:34.659Z,11.60
2022-10-04T20:50:02.901Z,11.60
2022-10-04T20:52:32.826Z,11.60
2022-10-04T20:55:01.490Z,11.60
2022-10-04T20:57:30.459Z,11.50
2022-10-04T20:59:59.343Z,11.50
2022-10-04T21:02:28.611Z,11.50
2022-10-04T21:05:12.163Z,11.50
2022-10-04T21:07:41.192Z,11.40
2022-10-04T21:10:16.240Z,11.50
2022-10-04T21:12:44.032Z,11.50
2022-10-04T21:15:21.915Z,11.70
2022-10-04T21:18:02.709Z,11.70
2022-10-04T21:20:43.527Z,11.90
2022-10-04T21:23:17.754Z,11.90
2022-10-04T21:25:45.504Z,12.00
2022-10-04T21:28:28.132Z,12.10
2022-10-04T21:30:55.877Z,12.20
2022-10-04T21:33:23.531Z,12.20
2022-10-04T21:35:52.041Z,12.20
2022-10-04T21:38:21.063Z,12.20
2022-10-04T21:40:48.725Z,12.10
2022-10-04T21:43:16.423Z,12.20
2022-10-04T21:45:44.179Z,12.30
2022-10-04T21:48:11.917Z,12.30
2022-10-04T21:50:39.596Z,12.30
2022-10-04T21:53:07.453Z,12.30
2022-10-04T21:55:36.502Z,12.20
2022-10-04T21:58:04.197Z,12.30
2022-10-04T22:00:32.571Z,12.30
2022-10-04T22:03:00.243Z,12.30
2022-10-04T22:05:27.983Z,12.30
2022-10-04T22:07:55.926Z,12.30
2022-10-04T22:10:23.605Z,12.20
2022-10-04T22:12:57.044Z,12.20
2022-10-04T22:15:25.763Z,12.30
2022-10-04T22:17:53.460Z,12.20
2022-10-04T22:20:21.351Z,12.20
2022-10-04T22:22:49.167Z,12.20
2022-10-04T22:25:17.571Z,12.20
2022-10-04T22:27:45.393Z,12.30
2022-10-04T22:30:19.333Z,12.20
2022-10-04T22:32:47.028Z,12.30
2022-10-04T22:35:16.294Z,12.30
2022-10-04T22:37:44.028Z,12.30
2022-10-04T22:40:15.251Z,12.20
2022-10-04T22:42:43.223Z,12.20
2022-10-04T22:45:24.233Z,12.10
2022-10-04T22:47:52.105Z,12.10
2022-10-04T22:50:27.673Z,12.10
2022-10-04T22:52:55.354Z,12.00
2022-10-04T22:55:23.169Z,12.10
2022-10-04T22:57:51.008Z,12.10
2022-10-04T23:00:18.667Z,12.10
2022-10-04T23:02:47.821Z,12.10
2022-10-04T23:05:17.147Z,12.00
2022-10-04T23:07:45.236Z,12.10
2022-10-04T23:10:13.671Z,12.00
2022-10-04T23:12:41.802Z,11.90
2022-10-04T23:15:15.224Z,11.90
2022-10-04T23:17:43.025Z,11.80
2022-10-04T23:20:14.305Z,11.70
2022-10-04T23:22:44.578Z,11.70
2022-10-04T23:25:16.791Z,11.70
2022-10-04T23:27:44.700Z,11.70
2022-10-04T23:30:15.385Z,11.80
2022-10-04T23:32:44.716Z,11.70
2022-10-04T23:35:16.622Z,11.70
2022-10-04T23:37:44.292Z,11.70
2022-10-04T23:40:12.972Z,11.70
2022-10-04T23:42:40.892Z,11.70
2022-10-04T23:45:14.463Z,11.70
2022-10-04T23:47:42.152Z,11.70
2022-10-04T23:50:17.144Z,11.70
2022-10-04T23:52:46.226Z,11.70
2022-10-04T23:55:17.049Z,11.60
2022-10-04T23:57:44.780Z,11.50
